sensor_id;sensor_type;location;lat;lon;timestamp;P1;durP1;ratioP1;P2;durP2;ratioP2
79143;SDS011;68551;47.484;19.092;2023-05-16T00:02:39;6.97;;;4.72;;
79143;SDS011;68551;47.484;19.092;2023-05-16T00:05:42;6.75;;;5.20;;
79143;SDS011;68551;47.484;19.092;2023-05-16T00:08:45;6.95;;;5.22;;
79143;SDS011;68551;47.484;19.092;2023-05-16T00:11:47;5.93;;;4.45;;
79143;SDS011;68551;47.484;19.092;2023-05-16T00:14:52;4.68;;;3.53;;
79143;SDS011;68551;47.484;19.092;2023-05-16T00:17:54;4.60;;;4.18;;
79143;SDS011;68551;47.484;19.092;2023-05-16T00:21:00;4.65;;;3.78;;
79143;SDS011;68551;47.484;19.092;2023-05-16T00:24:05;5.50;;;4.28;;
79143;SDS011;68551;47.484;19.092;2023-05-16T00:27:11;8.40;;;6.13;;
79143;SDS011;68551;47.484;19.092;2023-05-16T00:30:16;12.77;;;10.70;;
79143;SDS011;68551;47.484;19.092;2023-05-16T00:33:19;6.95;;;5.43;;
79143;SDS011;68551;47.484;19.092;2023-05-16T00:36:26;3.55;;;2.92;;
79143;SDS011;68551;47.484;19.092;2023-05-16T00:39:29;3.67;;;2.90;;
79143;SDS011;68551;47.484;19.092;2023-05-16T00:42:34;3.22;;;2.58;;
79143;SDS011;68551;47.484;19.092;2023-05-16T00:45:39;3.97;;;2.70;;
79143;SDS011;68551;47.484;19.092;2023-05-16T00:48:44;5.03;;;2.50;;
79143;SDS011;68551;47.484;19.092;2023-05-16T00:51:48;2.97;;;2.63;;
79143;SDS011;68551;47.484;19.092;2023-05-16T00:54:57;2.67;;;2.38;;
79143;SDS011;68551;47.484;19.092;2023-05-16T00:58:02;3.67;;;2.67;;
79143;SDS011;68551;47.484;19.092;2023-05-16T01:01:08;3.55;;;2.50;;
79143;SDS011;68551;47.484;19.092;2023-05-16T01:04:11;2.65;;;2.38;;
79143;SDS011;68551;47.484;19.092;2023-05-16T01:07:19;6.05;;;2.45;;
79143;SDS011;68551;47.484;19.092;2023-05-16T01:10:21;3.88;;;2.50;;
79143;SDS011;68551;47.484;19.092;2023-05-16T01:13:28;3.47;;;2.78;;
79143;SDS011;68551;47.484;19.092;2023-05-16T01:16:37;3.67;;;3.25;;
79143;SDS011;68551;47.484;19.092;2023-05-16T01:26:27;3.47;;;2.80;;
79143;SDS011;68551;47.484;19.092;2023-05-16T01:29:31;3.05;;;2.78;;
79143;SDS011;68551;47.484;19.092;2023-05-16T01:32:33;3.55;;;3.03;;
79143;SDS011;68551;47.484;19.092;2023-05-16T01:35:42;3.20;;;2.90;;
79143;SDS011;68551;47.484;19.092;2023-05-16T01:42:24;3.67;;;2.75;;
79143;SDS011;68551;47.484;19.092;2023-05-16T01:45:31;4.05;;;3.33;;
79143;SDS011;68551;47.484;19.092;2023-05-16T01:48:38;3.58;;;3.20;;
79143;SDS011;68551;47.484;19.092;2023-05-16T01:51:55;4.05;;;3.08;;
79143;SDS011;68551;47.484;19.092;2023-05-16T01:55:02;5.25;;;3.65;;
79143;SDS011;68551;47.484;19.092;2023-05-16T01:58:06;4.95;;;4.13;;
79143;SDS011;68551;47.484;19.092;2023-05-16T02:01:11;4.20;;;3.45;;
79143;SDS011;68551;47.484;19.092;2023-05-16T02:04:16;3.78;;;3.38;;
79143;SDS011;68551;47.484;19.092;2023-05-16T02:07:19;3.80;;;3.28;;
79143;SDS011;68551;47.484;19.092;2023-05-16T02:10:22;4.38;;;3.20;;
79143;SDS011;68551;47.484;19.092;2023-05-16T02:13:27;4.15;;;3.75;;
79143;SDS011;68551;47.484;19.092;2023-05-16T02:16:32;4.03;;;3.58;;
79143;SDS011;68551;47.484;19.092;2023-05-16T02:19:34;5.25;;;3.85;;
79143;SDS011;68551;47.484;19.092;2023-05-16T02:22:37;4.63;;;4.07;;
79143;SDS011;68551;47.484;19.092;2023-05-16T02:25:43;4.20;;;3.72;;
79143;SDS011;68551;47.484;19.092;2023-05-16T02:28:46;4.10;;;3.42;;
79143;SDS011;68551;47.484;19.092;2023-05-16T02:31:53;5.55;;;4.30;;
79143;SDS011;68551;47.484;19.092;2023-05-16T02:34:58;4.30;;;3.90;;
79143;SDS011;68551;47.484;19.092;2023-05-16T02:38:00;6.65;;;4.38;;
79143;SDS011;68551;47.484;19.092;2023-05-16T02:41:03;4.72;;;4.07;;
79143;SDS011;68551;47.484;19.092;2023-05-16T02:44:05;4.10;;;3.70;;
79143;SDS011;68551;47.484;19.092;2023-05-16T02:47:15;4.57;;;3.70;;
79143;SDS011;68551;47.484;19.092;2023-05-16T02:50:17;4.95;;;4.20;;
79143;SDS011;68551;47.484;19.092;2023-05-16T02:53:25;3.63;;;3.30;;
79143;SDS011;68551;47.484;19.092;2023-05-16T02:56:27;5.20;;;3.78;;
79143;SDS011;68551;47.484;19.092;2023-05-16T02:59:32;3.90;;;3.30;;
79143;SDS011;68551;47.484;19.092;2023-05-16T03:02:34;4.15;;;3.53;;
79143;SDS011;68551;47.484;19.092;2023-05-16T03:05:36;3.58;;;3.20;;
79143;SDS011;68551;47.484;19.092;2023-05-16T03:08:40;4.03;;;3.53;;
79143;SDS011;68551;47.484;19.092;2023-05-16T03:11:45;3.83;;;3.42;;
79143;SDS011;68551;47.484;19.092;2023-05-16T03:14:47;4.03;;;3.47;;
79143;SDS011;68551;47.484;19.092;2023-05-16T03:17:49;3.25;;;2.92;;
79143;SDS011;68551;47.484;19.092;2023-05-16T03:20:54;3.92;;;3.25;;
79143;SDS011;68551;47.484;19.092;2023-05-16T03:23:57;3.75;;;3.22;;
79143;SDS011;68551;47.484;19.092;2023-05-16T03:27:02;4.18;;;3.75;;
79143;SDS011;68551;47.484;19.092;2023-05-16T03:30:06;4.43;;;3.22;;
79143;SDS011;68551;47.484;19.092;2023-05-16T03:33:12;3.35;;;3.03;;
79143;SDS011;68551;47.484;19.092;2023-05-16T03:36:16;3.83;;;3.30;;
79143;SDS011;68551;47.484;19.092;2023-05-16T03:39:19;4.13;;;3.63;;
79143;SDS011;68551;47.484;19.092;2023-05-16T03:42:24;4.30;;;3.22;;
79143;SDS011;68551;47.484;19.092;2023-05-16T03:45:29;4.10;;;3.35;;
79143;SDS011;68551;47.484;19.092;2023-05-16T03:48:35;4.18;;;3.67;;
79143;SDS011;68551;47.484;19.092;2023-05-16T03:51:37;4.28;;;3.65;;
79143;SDS011;68551;47.484;19.092;2023-05-16T03:54:39;5.57;;;3.30;;
79143;SDS011;68551;47.484;19.092;2023-05-16T03:57:44;3.20;;;2.80;;
79143;SDS011;68551;47.484;19.092;2023-05-16T04:00:47;3.33;;;2.92;;
79143;SDS011;68551;47.484;19.092;2023-05-16T04:03:50;3.15;;;2.63;;
79143;SDS011;68551;47.484;19.092;2023-05-16T04:06:54;3.63;;;3.05;;
79143;SDS011;68551;47.484;19.092;2023-05-16T04:09:59;3.85;;;3.05;;
79143;SDS011;68551;47.484;19.092;2023-05-16T04:13:02;3.53;;;3.08;;
79143;SDS011;68551;47.484;19.092;2023-05-16T04:16:04;4.20;;;3.38;;
79143;SDS011;68551;47.484;19.092;2023-05-16T04:19:07;3.67;;;2.83;;
79143;SDS011;68551;47.484;19.092;2023-05-16T04:22:14;4.72;;;3.42;;
79143;SDS011;68551;47.484;19.092;2023-05-16T04:25:21;4.68;;;3.22;;
79143;SDS011;68551;47.484;19.092;2023-05-16T04:28:23;3.63;;;3.15;;
79143;SDS011;68551;47.484;19.092;2023-05-16T04:31:28;5.15;;;3.53;;
79143;SDS011;68551;47.484;19.092;2023-05-16T04:34:30;4.55;;;3.10;;
79143;SDS011;68551;47.484;19.092;2023-05-16T04:37:34;4.47;;;3.90;;
79143;SDS011;68551;47.484;19.092;2023-05-16T04:40:42;3.63;;;3.10;;
79143;SDS011;68551;47.484;19.092;2023-05-16T04:43:52;4.43;;;2.60;;
79143;SDS011;68551;47.484;19.092;2023-05-16T04:46:54;3.30;;;2.78;;
79143;SDS011;68551;47.484;19.092;2023-05-16T04:50:01;2.97;;;2.65;;
79143;SDS011;68551;47.484;19.092;2023-05-16T04:53:07;3.60;;;3.05;;
79143;SDS011;68551;47.484;19.092;2023-05-16T04:56:11;4.43;;;3.17;;
79143;SDS011;68551;47.484;19.092;2023-05-16T04:59:14;4.47;;;2.72;;
79143;SDS011;68551;47.484;19.092;2023-05-16T05:02:19;3.22;;;2.90;;
79143;SDS011;68551;47.484;19.092;2023-05-16T05:05:21;4.80;;;3.40;;
79143;SDS011;68551;47.484;19.092;2023-05-16T05:08:26;3.70;;;3.17;;
79143;SDS011;68551;47.484;19.092;2023-05-16T05:11:29;3.45;;;3.15;;
79143;SDS011;68551;47.484;19.092;2023-05-16T05:14:33;3.78;;;3.13;;
79143;SDS011;68551;47.484;19.092;2023-05-16T05:17:38;3.95;;;2.88;;
79143;SDS011;68551;47.484;19.092;2023-05-16T05:20:42;4.13;;;2.90;;
79143;SDS011;68551;47.484;19.092;2023-05-16T05:23:48;4.05;;;2.90;;
79143;SDS011;68551;47.484;19.092;2023-05-16T05:26:53;4.60;;;3.45;;
79143;SDS011;68551;47.484;19.092;2023-05-16T05:29:55;4.10;;;3.08;;
79143;SDS011;68551;47.484;19.092;2023-05-16T05:33:05;3.50;;;2.83;;
79143;SDS011;68551;47.484;19.092;2023-05-16T05:36:09;4.22;;;3.10;;
79143;SDS011;68551;47.484;19.092;2023-05-16T05:39:11;3.55;;;2.97;;
79143;SDS011;68551;47.484;19.092;2023-05-16T05:42:16;3.63;;;2.88;;
79143;SDS011;68551;47.484;19.092;2023-05-16T05:45:20;3.83;;;3.20;;
79143;SDS011;68551;47.484;19.092;2023-05-16T05:48:28;4.88;;;3.28;;
79143;SDS011;68551;47.484;19.092;2023-05-16T05:51:33;4.40;;;3.00;;
79143;SDS011;68551;47.484;19.092;2023-05-16T05:54:38;7.18;;;3.13;;
79143;SDS011;68551;47.484;19.092;2023-05-16T05:57:43;4.10;;;2.85;;
79143;SDS011;68551;47.484;19.092;2023-05-16T06:00:47;3.72;;;3.17;;
79143;SDS011;68551;47.484;19.092;2023-05-16T06:03:52;5.55;;;2.75;;
79143;SDS011;68551;47.484;19.092;2023-05-16T06:06:55;3.78;;;2.80;;
79143;SDS011;68551;47.484;19.092;2023-05-16T06:10:00;3.67;;;2.92;;
79143;SDS011;68551;47.484;19.092;2023-05-16T06:13:06;4.43;;;3.33;;
79143;SDS011;68551;47.484;19.092;2023-05-16T06:16:13;5.28;;;3.20;;
79143;SDS011;68551;47.484;19.092;2023-05-16T06:19:18;4.10;;;3.13;;
79143;SDS011;68551;47.484;19.092;2023-05-16T06:22:25;4.32;;;3.45;;
79143;SDS011;68551;47.484;19.092;2023-05-16T06:25:27;4.03;;;2.90;;
79143;SDS011;68551;47.484;19.092;2023-05-16T06:28:31;3.75;;;3.35;;
79143;SDS011;68551;47.484;19.092;2023-05-16T06:31:36;3.42;;;3.05;;
79143;SDS011;68551;47.484;19.092;2023-05-16T06:34:43;4.38;;;3.55;;
79143;SDS011;68551;47.484;19.092;2023-05-16T06:37:45;4.95;;;3.08;;
79143;SDS011;68551;47.484;19.092;2023-05-16T06:43:53;4.55;;;3.70;;
79143;SDS011;68551;47.484;19.092;2023-05-16T06:46:57;3.47;;;2.85;;
79143;SDS011;68551;47.484;19.092;2023-05-16T06:50:02;5.25;;;3.58;;
79143;SDS011;68551;47.484;19.092;2023-05-16T06:53:08;4.10;;;2.88;;
79143;SDS011;68551;47.484;19.092;2023-05-16T06:56:13;4.75;;;2.70;;
79143;SDS011;68551;47.484;19.092;2023-05-16T06:59:16;5.28;;;3.08;;
79143;SDS011;68551;47.484;19.092;2023-05-16T07:02:26;3.20;;;2.90;;
79143;SDS011;68551;47.484;19.092;2023-05-16T07:05:31;5.40;;;3.17;;
79143;SDS011;68551;47.484;19.092;2023-05-16T07:08:33;3.75;;;3.03;;
79143;SDS011;68551;47.484;19.092;2023-05-16T07:11:40;4.13;;;3.60;;
79143;SDS011;68551;47.484;19.092;2023-05-16T07:14:44;4.70;;;3.63;;
79143;SDS011;68551;47.484;19.092;2023-05-16T07:17:50;4.47;;;3.60;;
79143;SDS011;68551;47.484;19.092;2023-05-16T07:20:55;5.10;;;3.58;;
79143;SDS011;68551;47.484;19.092;2023-05-16T07:23:57;6.30;;;3.78;;
79143;SDS011;68551;47.484;19.092;2023-05-16T07:27:04;4.70;;;3.42;;
79143;SDS011;68551;47.484;19.092;2023-05-16T07:30:08;6.60;;;3.97;;
79143;SDS011;68551;47.484;19.092;2023-05-16T07:33:13;6.88;;;4.20;;
79143;SDS011;68551;47.484;19.092;2023-05-16T07:36:19;4.47;;;3.60;;
79143;SDS011;68551;47.484;19.092;2023-05-16T07:42:26;5.47;;;4.03;;
79143;SDS011;68551;47.484;19.092;2023-05-16T07:45:31;7.03;;;4.72;;
79143;SDS011;68551;47.484;19.092;2023-05-16T07:48:36;5.55;;;4.53;;
79143;SDS011;68551;47.484;19.092;2023-05-16T07:51:39;7.00;;;4.20;;
79143;SDS011;68551;47.484;19.092;2023-05-16T07:54:41;5.15;;;4.45;;
79143;SDS011;68551;47.484;19.092;2023-05-16T07:57:44;6.32;;;4.88;;
79143;SDS011;68551;47.484;19.092;2023-05-16T08:00:46;5.80;;;4.57;;
79143;SDS011;68551;47.484;19.092;2023-05-16T08:03:48;14.43;;;5.72;;
79143;SDS011;68551;47.484;19.092;2023-05-16T08:06:54;10.40;;;5.68;;
79143;SDS011;68551;47.484;19.092;2023-05-16T08:13:02;7.68;;;5.45;;
79143;SDS011;68551;47.484;19.092;2023-05-16T08:16:05;7.93;;;6.03;;
79143;SDS011;68551;47.484;19.092;2023-05-16T08:19:08;9.30;;;6.40;;
79143;SDS011;68551;47.484;19.092;2023-05-16T08:22:12;8.80;;;6.13;;
79143;SDS011;68551;47.484;19.092;2023-05-16T08:25:15;8.60;;;6.05;;
79143;SDS011;68551;47.484;19.092;2023-05-16T08:28:17;10.40;;;6.53;;
79143;SDS011;68551;47.484;19.092;2023-05-16T08:31:22;9.75;;;6.30;;
79143;SDS011;68551;47.484;19.092;2023-05-16T08:34:30;8.40;;;6.03;;
79143;SDS011;68551;47.484;19.092;2023-05-16T08:37:35;10.20;;;7.20;;
79143;SDS011;68551;47.484;19.092;2023-05-16T08:40:38;9.50;;;7.03;;
79143;SDS011;68551;47.484;19.092;2023-05-16T08:43:43;12.18;;;6.90;;
79143;SDS011;68551;47.484;19.092;2023-05-16T08:46:49;9.88;;;6.82;;
79143;SDS011;68551;47.484;19.092;2023-05-16T08:49:58;10.10;;;6.18;;
79143;SDS011;68551;47.484;19.092;2023-05-16T08:53:04;6.80;;;4.30;;
79143;SDS011;68551;47.484;19.092;2023-05-16T08:56:11;7.70;;;4.68;;
79143;SDS011;68551;47.484;19.092;2023-05-16T08:59:15;5.45;;;3.53;;
79143;SDS011;68551;47.484;19.092;2023-05-16T09:02:21;5.32;;;3.50;;
79143;SDS011;68551;47.484;19.092;2023-05-16T09:05:24;5.03;;;3.65;;
79143;SDS011;68551;47.484;19.092;2023-05-16T09:08:33;6.88;;;3.85;;
79143;SDS011;68551;47.484;19.092;2023-05-16T09:11:38;5.55;;;2.95;;
79143;SDS011;68551;47.484;19.092;2023-05-16T09:14:45;4.85;;;3.13;;
79143;SDS011;68551;47.484;19.092;2023-05-16T09:17:51;5.40;;;2.85;;
79143;SDS011;68551;47.484;19.092;2023-05-16T09:20:54;4.80;;;3.28;;
79143;SDS011;68551;47.484;19.092;2023-05-16T09:24:03;5.53;;;3.72;;
79143;SDS011;68551;47.484;19.092;2023-05-16T09:27:09;4.30;;;3.05;;
79143;SDS011;68551;47.484;19.092;2023-05-16T09:30:16;4.20;;;2.92;;
79143;SDS011;68551;47.484;19.092;2023-05-16T09:33:24;3.85;;;2.83;;
79143;SDS011;68551;47.484;19.092;2023-05-16T09:36:30;4.65;;;3.00;;
79143;SDS011;68551;47.484;19.092;2023-05-16T09:39:39;4.88;;;3.42;;
79143;SDS011;68551;47.484;19.092;2023-05-16T09:43:01;4.93;;;3.42;;
79143;SDS011;68551;47.484;19.092;2023-05-16T09:46:05;5.03;;;3.38;;
79143;SDS011;68551;47.484;19.092;2023-05-16T09:49:10;6.28;;;3.88;;
79143;SDS011;68551;47.484;19.092;2023-05-16T09:52:21;4.60;;;3.20;;
79143;SDS011;68551;47.484;19.092;2023-05-16T09:55:27;4.85;;;3.33;;
79143;SDS011;68551;47.484;19.092;2023-05-16T09:58:30;5.50;;;3.03;;
79143;SDS011;68551;47.484;19.092;2023-05-16T10:01:34;5.75;;;3.72;;
79143;SDS011;68551;47.484;19.092;2023-05-16T10:04:39;5.30;;;3.35;;
79143;SDS011;68551;47.484;19.092;2023-05-16T10:07:46;5.63;;;3.72;;
79143;SDS011;68551;47.484;19.092;2023-05-16T10:10:53;6.38;;;3.85;;
79143;SDS011;68551;47.484;19.092;2023-05-16T10:13:58;6.88;;;4.35;;
79143;SDS011;68551;47.484;19.092;2023-05-16T10:17:01;7.57;;;5.00;;
79143;SDS011;68551;47.484;19.092;2023-05-16T10:20:08;7.40;;;4.13;;
79143;SDS011;68551;47.484;19.092;2023-05-16T10:23:16;7.95;;;4.72;;
79143;SDS011;68551;47.484;19.092;2023-05-16T10:26:22;5.28;;;4.35;;
79143;SDS011;68551;47.484;19.092;2023-05-16T10:29:29;5.95;;;3.67;;
79143;SDS011;68551;47.484;19.092;2023-05-16T10:32:44;7.78;;;5.30;;
79143;SDS011;68551;47.484;19.092;2023-05-16T10:35:47;8.20;;;5.70;;
79143;SDS011;68551;47.484;19.092;2023-05-16T10:38:50;9.30;;;4.97;;
79143;SDS011;68551;47.484;19.092;2023-05-16T10:41:54;7.10;;;4.82;;
79143;SDS011;68551;47.484;19.092;2023-05-16T10:48:19;6.97;;;4.50;;
79143;SDS011;68551;47.484;19.092;2023-05-16T10:51:36;6.88;;;4.63;;
79143;SDS011;68551;47.484;19.092;2023-05-16T10:54:41;6.13;;;4.45;;
79143;SDS011;68551;47.484;19.092;2023-05-16T10:57:51;6.22;;;4.32;;
79143;SDS011;68551;47.484;19.092;2023-05-16T11:01:39;5.88;;;4.40;;
79143;SDS011;68551;47.484;19.092;2023-05-16T11:04:18;5.93;;;4.18;;
79143;SDS011;68551;47.484;19.092;2023-05-16T11:07:23;5.70;;;3.75;;
79143;SDS011;68551;47.484;19.092;2023-05-16T11:10:37;5.40;;;3.65;;
79143;SDS011;68551;47.484;19.092;2023-05-16T11:13:52;5.40;;;4.00;;
79143;SDS011;68551;47.484;19.092;2023-05-16T11:20:17;5.78;;;3.97;;
79143;SDS011;68551;47.484;19.092;2023-05-16T11:23:28;5.38;;;3.78;;
79143;SDS011;68551;47.484;19.092;2023-05-16T11:26:35;5.78;;;4.00;;
79143;SDS011;68551;47.484;19.092;2023-05-16T11:29:37;5.60;;;3.75;;
79143;SDS011;68551;47.484;19.092;2023-05-16T11:32:40;7.93;;;5.07;;
79143;SDS011;68551;47.484;19.092;2023-05-16T11:35:58;5.78;;;4.32;;
79143;SDS011;68551;47.484;19.092;2023-05-16T11:39:17;7.18;;;4.03;;
79143;SDS011;68551;47.484;19.092;2023-05-16T11:42:30;6.72;;;4.55;;
79143;SDS011;68551;47.484;19.092;2023-05-16T11:45:35;5.80;;;4.38;;
79143;SDS011;68551;47.484;19.092;2023-05-16T11:48:38;7.80;;;5.15;;
79143;SDS011;68551;47.484;19.092;2023-05-16T11:51:41;8.40;;;5.03;;
79143;SDS011;68551;47.484;19.092;2023-05-16T11:54:48;7.03;;;4.63;;
79143;SDS011;68551;47.484;19.092;2023-05-16T11:57:55;9.10;;;5.47;;
79143;SDS011;68551;47.484;19.092;2023-05-16T12:01:02;7.82;;;4.68;;
79143;SDS011;68551;47.484;19.092;2023-05-16T12:04:09;8.30;;;5.53;;
79143;SDS011;68551;47.484;19.092;2023-05-16T12:07:16;6.15;;;4.65;;
79143;SDS011;68551;47.484;19.092;2023-05-16T12:10:18;7.05;;;4.70;;
79143;SDS011;68551;47.484;19.092;2023-05-16T12:13:25;8.00;;;4.72;;
79143;SDS011;68551;47.484;19.092;2023-05-16T12:16:32;5.75;;;4.75;;
79143;SDS011;68551;47.484;19.092;2023-05-16T12:19:38;7.03;;;4.07;;
79143;SDS011;68551;47.484;19.092;2023-05-16T12:22:41;6.28;;;4.22;;
79143;SDS011;68551;47.484;19.092;2023-05-16T12:25:49;6.63;;;4.40;;
79143;SDS011;68551;47.484;19.092;2023-05-16T12:29:00;5.88;;;3.75;;
79143;SDS011;68551;47.484;19.092;2023-05-16T12:32:06;6.22;;;4.43;;
79143;SDS011;68551;47.484;19.092;2023-05-16T12:35:10;6.40;;;4.47;;
79143;SDS011;68551;47.484;19.092;2023-05-16T12:38:20;6.05;;;4.93;;
79143;SDS011;68551;47.484;19.092;2023-05-16T12:41:25;7.57;;;4.45;;
79143;SDS011;68551;47.484;19.092;2023-05-16T12:44:28;5.38;;;3.88;;
79143;SDS011;68551;47.484;19.092;2023-05-16T12:47:34;8.27;;;4.35;;
79143;SDS011;68551;47.484;19.092;2023-05-16T12:50:41;7.30;;;4.43;;
79143;SDS011;68551;47.484;19.092;2023-05-16T12:53:47;7.80;;;4.63;;
79143;SDS011;68551;47.484;19.092;2023-05-16T12:57:12;6.25;;;4.28;;
79143;SDS011;68551;47.484;19.092;2023-05-16T13:00:18;7.22;;;4.53;;
79143;SDS011;68551;47.484;19.092;2023-05-16T13:03:21;5.65;;;4.10;;
79143;SDS011;68551;47.484;19.092;2023-05-16T13:06:24;6.13;;;4.32;;
79143;SDS011;68551;47.484;19.092;2023-05-16T13:09:30;8.60;;;5.22;;
79143;SDS011;68551;47.484;19.092;2023-05-16T13:12:37;8.88;;;4.82;;
79143;SDS011;68551;47.484;19.092;2023-05-16T13:15:43;9.15;;;4.93;;
79143;SDS011;68551;47.484;19.092;2023-05-16T13:18:46;7.03;;;4.50;;
79143;SDS011;68551;47.484;19.092;2023-05-16T13:21:58;7.65;;;4.43;;
79143;SDS011;68551;47.484;19.092;2023-05-16T13:25:00;7.80;;;4.93;;
79143;SDS011;68551;47.484;19.092;2023-05-16T13:28:03;6.80;;;4.80;;
79143;SDS011;68551;47.484;19.092;2023-05-16T13:31:05;6.25;;;4.45;;
79143;SDS011;68551;47.484;19.092;2023-05-16T13:34:13;7.28;;;4.35;;
79143;SDS011;68551;47.484;19.092;2023-05-16T13:37:16;6.05;;;4.63;;
79143;SDS011;68551;47.484;19.092;2023-05-16T13:40:23;6.32;;;4.50;;
79143;SDS011;68551;47.484;19.092;2023-05-16T13:43:28;7.45;;;4.60;;
79143;SDS011;68551;47.484;19.092;2023-05-16T13:46:33;7.13;;;5.10;;
79143;SDS011;68551;47.484;19.092;2023-05-16T13:52:43;7.40;;;4.15;;
79143;SDS011;68551;47.484;19.092;2023-05-16T13:55:45;8.38;;;4.55;;
79143;SDS011;68551;47.484;19.092;2023-05-16T13:58:52;6.05;;;4.63;;
79143;SDS011;68551;47.484;19.092;2023-05-16T14:02:09;7.47;;;4.80;;
79143;SDS011;68551;47.484;19.092;2023-05-16T14:05:14;7.18;;;5.35;;
79143;SDS011;68551;47.484;19.092;2023-05-16T14:08:19;7.57;;;4.90;;
79143;SDS011;68551;47.484;19.092;2023-05-16T14:11:23;7.72;;;4.65;;
79143;SDS011;68551;47.484;19.092;2023-05-16T14:14:38;5.80;;;4.03;;
79143;SDS011;68551;47.484;19.092;2023-05-16T14:17:43;11.35;;;4.90;;
79143;SDS011;68551;47.484;19.092;2023-05-16T14:20:45;9.32;;;4.57;;
79143;SDS011;68551;47.484;19.092;2023-05-16T14:23:47;5.80;;;4.00;;
79143;SDS011;68551;47.484;19.092;2023-05-16T14:26:50;7.45;;;4.93;;
79143;SDS011;68551;47.484;19.092;2023-05-16T14:30:01;7.45;;;4.63;;
79143;SDS011;68551;47.484;19.092;2023-05-16T14:33:05;6.82;;;4.38;;
79143;SDS011;68551;47.484;19.092;2023-05-16T14:36:09;7.78;;;4.25;;
79143;SDS011;68551;47.484;19.092;2023-05-16T14:39:14;8.15;;;4.50;;
79143;SDS011;68551;47.484;19.092;2023-05-16T14:42:20;6.32;;;4.43;;
79143;SDS011;68551;47.484;19.092;2023-05-16T14:45:27;7.38;;;4.57;;
79143;SDS011;68551;47.484;19.092;2023-05-16T14:48:30;6.90;;;4.53;;
79143;SDS011;68551;47.484;19.092;2023-05-16T14:51:35;6.35;;;4.70;;
79143;SDS011;68551;47.484;19.092;2023-05-16T14:54:38;8.35;;;4.88;;
79143;SDS011;68551;47.484;19.092;2023-05-16T14:57:43;8.27;;;5.07;;
79143;SDS011;68551;47.484;19.092;2023-05-16T15:00:53;11.77;;;4.90;;
79143;SDS011;68551;47.484;19.092;2023-05-16T15:03:55;11.00;;;5.18;;
79143;SDS011;68551;47.484;19.092;2023-05-16T15:06:57;8.55;;;4.82;;
79143;SDS011;68551;47.484;19.092;2023-05-16T15:10:05;7.55;;;5.13;;
79143;SDS011;68551;47.484;19.092;2023-05-16T15:13:11;9.63;;;5.50;;
79143;SDS011;68551;47.484;19.092;2023-05-16T15:16:13;11.02;;;6.35;;
79143;SDS011;68551;47.484;19.092;2023-05-16T15:19:15;7.50;;;4.70;;
79143;SDS011;68551;47.484;19.092;2023-05-16T15:22:18;8.35;;;5.65;;
79143;SDS011;68551;47.484;19.092;2023-05-16T15:25:21;9.40;;;5.63;;
79143;SDS011;68551;47.484;19.092;2023-05-16T15:28:24;11.13;;;5.57;;
79143;SDS011;68551;47.484;19.092;2023-05-16T15:31:26;10.38;;;5.40;;
79143;SDS011;68551;47.484;19.092;2023-05-16T15:34:33;9.05;;;5.38;;
79143;SDS011;68551;47.484;19.092;2023-05-16T15:37:36;8.25;;;5.15;;
79143;SDS011;68551;47.484;19.092;2023-05-16T15:40:41;10.25;;;6.95;;
79143;SDS011;68551;47.484;19.092;2023-05-16T15:43:48;7.53;;;5.50;;
79143;SDS011;68551;47.484;19.092;2023-05-16T15:46:53;8.77;;;5.95;;
79143;SDS011;68551;47.484;19.092;2023-05-16T15:50:01;5.93;;;4.65;;
79143;SDS011;68551;47.484;19.092;2023-05-16T15:53:03;8.05;;;5.65;;
79143;SDS011;68551;47.484;19.092;2023-05-16T15:56:06;8.85;;;5.30;;
79143;SDS011;68551;47.484;19.092;2023-05-16T15:59:10;9.63;;;5.82;;
79143;SDS011;68551;47.484;19.092;2023-05-16T16:02:13;8.88;;;5.38;;
79143;SDS011;68551;47.484;19.092;2023-05-16T16:05:18;8.65;;;5.72;;
79143;SDS011;68551;47.484;19.092;2023-05-16T16:08:21;9.43;;;5.85;;
79143;SDS011;68551;47.484;19.092;2023-05-16T16:11:26;11.23;;;5.13;;
79143;SDS011;68551;47.484;19.092;2023-05-16T16:14:30;10.52;;;5.65;;
79143;SDS011;68551;47.484;19.092;2023-05-16T16:17:33;8.93;;;5.88;;
79143;SDS011;68551;47.484;19.092;2023-05-16T16:20:38;11.70;;;7.10;;
79143;SDS011;68551;47.484;19.092;2023-05-16T16:23:45;8.10;;;5.60;;
79143;SDS011;68551;47.484;19.092;2023-05-16T16:26:50;11.25;;;6.35;;
79143;SDS011;68551;47.484;19.092;2023-05-16T16:29:54;11.38;;;6.22;;
79143;SDS011;68551;47.484;19.092;2023-05-16T16:32:59;10.18;;;5.88;;
79143;SDS011;68551;47.484;19.092;2023-05-16T16:36:05;11.18;;;5.72;;
79143;SDS011;68551;47.484;19.092;2023-05-16T16:39:07;10.07;;;6.10;;
79143;SDS011;68551;47.484;19.092;2023-05-16T16:42:13;9.98;;;5.75;;
79143;SDS011;68551;47.484;19.092;2023-05-16T16:45:16;8.68;;;6.15;;
79143;SDS011;68551;47.484;19.092;2023-05-16T16:48:28;6.85;;;4.80;;
79143;SDS011;68551;47.484;19.092;2023-05-16T16:51:31;9.50;;;6.57;;
79143;SDS011;68551;47.484;19.092;2023-05-16T16:54:34;13.23;;;7.00;;
79143;SDS011;68551;47.484;19.092;2023-05-16T16:57:40;9.57;;;6.40;;
79143;SDS011;68551;47.484;19.092;2023-05-16T17:00:43;12.00;;;6.60;;
79143;SDS011;68551;47.484;19.092;2023-05-16T17:06:50;9.70;;;6.07;;
79143;SDS011;68551;47.484;19.092;2023-05-16T17:09:59;10.52;;;5.82;;
79143;SDS011;68551;47.484;19.092;2023-05-16T17:13:07;7.72;;;6.07;;
79143;SDS011;68551;47.484;19.092;2023-05-16T17:16:11;7.93;;;6.20;;
79143;SDS011;68551;47.484;19.092;2023-05-16T17:19:13;10.23;;;6.78;;
79143;SDS011;68551;47.484;19.092;2023-05-16T17:22:17;9.07;;;6.68;;
79143;SDS011;68551;47.484;19.092;2023-05-16T17:25:24;12.75;;;7.18;;
79143;SDS011;68551;47.484;19.092;2023-05-16T17:28:32;9.90;;;6.93;;
79143;SDS011;68551;47.484;19.092;2023-05-16T17:31:39;11.52;;;7.65;;
79143;SDS011;68551;47.484;19.092;2023-05-16T17:34:41;11.32;;;7.50;;
79143;SDS011;68551;47.484;19.092;2023-05-16T17:37:48;12.82;;;7.35;;
79143;SDS011;68551;47.484;19.092;2023-05-16T17:40:50;14.48;;;7.72;;
79143;SDS011;68551;47.484;19.092;2023-05-16T17:43:53;11.63;;;7.70;;
79143;SDS011;68551;47.484;19.092;2023-05-16T17:46:56;11.48;;;7.60;;
79143;SDS011;68551;47.484;19.092;2023-05-16T17:49:58;11.88;;;7.97;;
79143;SDS011;68551;47.484;19.092;2023-05-16T17:53:01;11.65;;;8.35;;
79143;SDS011;68551;47.484;19.092;2023-05-16T17:56:05;11.43;;;7.30;;
79143;SDS011;68551;47.484;19.092;2023-05-16T17:59:08;10.68;;;7.05;;
79143;SDS011;68551;47.484;19.092;2023-05-16T18:02:11;10.35;;;7.32;;
79143;SDS011;68551;47.484;19.092;2023-05-16T18:05:17;10.35;;;7.80;;
79143;SDS011;68551;47.484;19.092;2023-05-16T18:08:22;10.77;;;8.18;;
79143;SDS011;68551;47.484;19.092;2023-05-16T18:11:24;13.15;;;9.70;;
79143;SDS011;68551;47.484;19.092;2023-05-16T18:14:26;11.27;;;7.63;;
79143;SDS011;68551;47.484;19.092;2023-05-16T18:17:29;10.95;;;7.68;;
79143;SDS011;68551;47.484;19.092;2023-05-16T18:20:31;13.23;;;8.07;;
79143;SDS011;68551;47.484;19.092;2023-05-16T18:23:34;15.85;;;9.30;;
79143;SDS011;68551;47.484;19.092;2023-05-16T18:26:39;11.80;;;8.30;;
79143;SDS011;68551;47.484;19.092;2023-05-16T18:29:43;11.82;;;7.57;;
79143;SDS011;68551;47.484;19.092;2023-05-16T18:32:46;12.00;;;7.90;;
79143;SDS011;68551;47.484;19.092;2023-05-16T18:35:48;13.43;;;8.80;;
79143;SDS011;68551;47.484;19.092;2023-05-16T18:38:53;12.05;;;8.45;;
79143;SDS011;68551;47.484;19.092;2023-05-16T18:41:58;10.95;;;8.30;;
79143;SDS011;68551;47.484;19.092;2023-05-16T18:45:00;12.77;;;7.68;;
79143;SDS011;68551;47.484;19.092;2023-05-16T18:48:03;9.55;;;6.53;;
79143;SDS011;68551;47.484;19.092;2023-05-16T18:51:06;10.55;;;7.35;;